createdAt,value
2024-05-09T00:04:59.449Z,3.3
2024-05-09T00:20:41.880Z,3.8
2024-05-09T00:36:24.057Z,4
2024-05-09T00:52:06.253Z,4.1
2024-05-09T01:07:48.601Z,4.19
2024-05-09T01:23:30.722Z,4.1
2024-05-09T01:39:13.168Z,3.8
2024-05-09T01:54:55.805Z,4.3
2024-05-09T02:10:38.721Z,4.1
2024-05-09T02:26:20.881Z,4.4
2024-05-09T02:42:03.475Z,5
2024-05-09T02:57:45.659Z,5.1
2024-05-09T03:13:28.117Z,5.3
2024-05-09T03:29:10.991Z,5
2024-05-09T03:44:53.645Z,5.6
2024-05-09T04:00:36.071Z,5.3
2024-05-09T04:16:18.751Z,6.2
2024-05-09T04:32:01.112Z,5
2024-05-09T04:47:43.657Z,4.8
2024-05-09T05:03:26.539Z,4.6
2024-05-09T05:19:09.145Z,4.4
2024-05-09T05:34:51.566Z,5.1
2024-05-09T05:50:34.083Z,4
2024-05-09T06:06:16.654Z,3.8
2024-05-09T06:21:58.955Z,3.8
2024-05-09T06:37:41.169Z,3.6
2024-05-09T06:53:23.702Z,3.7
2024-05-09T07:09:06.065Z,3.2
2024-05-09T07:24:48.081Z,3.8
2024-05-09T07:40:30.637Z,3.1
2024-05-09T07:56:13.050Z,3
2024-05-09T08:11:55.569Z,2.8
2024-05-09T08:27:37.925Z,2.09
2024-05-09T08:43:20.048Z,2
2024-05-09T08:59:02.064Z,1.8
2024-05-09T09:14:44.009Z,2
2024-05-09T09:30:26.685Z,2
2024-05-09T09:46:09.408Z,1.6
2024-05-09T10:01:51.487Z,2.4
2024-05-09T10:17:33.327Z,1.9
2024-05-09T10:33:15.450Z,1.4
2024-05-09T10:48:58.140Z,1.5
2024-05-09T11:04:40.089Z,1.3
2024-05-09T11:20:22.186Z,1.8
2024-05-09T11:36:04.945Z,1.5
2024-05-09T11:51:46.876Z,1.7
2024-05-09T12:07:29.151Z,1.6
2024-05-09T12:23:11.287Z,1.8
2024-05-09T12:38:54.006Z,1.3
2024-05-09T12:54:35.920Z,1.5
2024-05-09T13:10:18.519Z,1.9
2024-05-09T13:26:00.468Z,1.6
2024-05-09T13:41:43.030Z,1.1
2024-05-09T13:57:25.347Z,1.3
2024-05-09T14:13:07.921Z,1.3
2024-05-09T14:28:50.277Z,1.2
2024-05-09T14:44:32.962Z,1.3
2024-05-09T15:00:14.815Z,1.3
2024-05-09T15:15:57.563Z,1.3
2024-05-09T15:31:40.180Z,1.4
2024-05-09T15:47:22.549Z,1.9
2024-05-09T16:03:04.795Z,1.6
2024-05-09T16:18:46.990Z,1.8
2024-05-09T16:34:28.939Z,1.7
2024-05-09T16:50:11.042Z,2.09
2024-05-09T17:05:53.382Z,2.2
2024-05-09T17:21:36.244Z,2.2
2024-05-09T17:37:19.110Z,2.6
2024-05-09T17:53:01.734Z,2.6
2024-05-09T18:08:44.412Z,2
2024-05-09T18:24:27.056Z,1.8
2024-05-09T18:40:10.000Z,2.2
2024-05-09T18:55:53.141Z,2.5
2024-05-09T19:11:35.959Z,2.6
2024-05-09T19:27:18.039Z,7.8
2024-05-09T19:43:00.282Z,7
2024-05-09T19:58:42.444Z,8.1
2024-05-09T19:59:29.764Z,8.5
2024-05-09T20:15:12.053Z,7.3
2024-05-09T20:30:54.706Z,5.7
2024-05-09T20:46:37.349Z,3.9
2024-05-09T21:02:19.895Z,5.5
2024-05-09T21:18:02.526Z,5.3
2024-05-09T21:33:45.585Z,5.8
2024-05-09T21:49:28.645Z,5.6
2024-05-09T22:05:11.014Z,6.6
2024-05-09T22:20:54.223Z,6.4
2024-05-09T22:36:36.954Z,6.9
2024-05-09T22:52:19.102Z,9.5
2024-05-09T23:08:01.262Z,8.5
2024-05-09T23:23:43.951Z,7.5
2024-05-09T23:39:27.081Z,7.3
2024-05-09T23:55:09.744Z,7.5
